<?xml version="1.0" encoding="UTF-8" standalone="no" ?>
<gpx xmlns="http://www.topografix.com/GPX/1/1" xmlns:xsi="http://www.w3.org/2001/XMLSchema-instance" xsi:schemaLocation="http://www.topografix.com/GPX/1/1 http://www.topografix.com/GPX/1/1/gpx.xsd" version="1.1" creator="VisuGPX - https://www.visugpx.com">
  <metadata>
    <name>boucles beaumont</name>
    <desc><![CDATA[boucles beaumont du périgord]]></desc>
  </metadata>
  <trk>
    <name><![CDATA[BBmt71]]></name>
    <trkseg>
      <trkpt lat="44.77818" lon="0.7838">
        <ele>121</ele>
        <time>2009-01-26T11:19:18Z</time>
      </trkpt>
      <trkpt lat="44.77804" lon="0.78342">
        <ele>119</ele>
        <time>2009-06-18T16:43:36Z</time>
      </trkpt>
      <trkpt lat="44.77726" lon="0.78079">
        <ele>116</ele>
        <time>2009-01-26T11:19:39Z</time>
      </trkpt>
      <trkpt lat="44.7766" lon="0.77938">
        <ele>119</ele>
        <time>2009-01-26T11:19:47Z</time>
      </trkpt>
      <trkpt lat="44.77648" lon="0.77918">
        <ele>116</ele>
        <time>2009-01-26T11:19:54Z</time>
      </trkpt>
      <trkpt lat="44.7764" lon="0.77893">
        <ele>119</ele>
        <time>2009-01-26T11:20:00Z</time>
      </trkpt>
      <trkpt lat="44.77633" lon="0.77865">
        <ele>121</ele>
        <time>2009-01-26T11:20:06Z</time>
      </trkpt>
      <trkpt lat="44.77633" lon="0.77835">
        <ele>125</ele>
        <time>2009-01-26T11:20:12Z</time>
      </trkpt>
      <trkpt lat="44.77635" lon="0.77805">
        <ele>129</ele>
        <time>2009-01-26T11:20:18Z</time>
      </trkpt>
      <trkpt lat="44.77635" lon="0.77778">
        <ele>128</ele>
        <time>2009-01-26T11:20:39Z</time>
      </trkpt>
      <trkpt lat="44.77635" lon="0.7775">
        <ele>128</ele>
        <time>2009-01-26T11:20:45Z</time>
      </trkpt>
      <trkpt lat="44.77638" lon="0.77723">
        <ele>128</ele>
        <time>2009-01-26T11:20:49Z</time>
      </trkpt>
      <trkpt lat="44.7764" lon="0.7769">
        <ele>128</ele>
        <time>2009-01-26T11:20:53Z</time>
      </trkpt>
      <trkpt lat="44.77643" lon="0.77655">
        <ele>127</ele>
        <time>2009-01-26T11:20:57Z</time>
      </trkpt>
      <trkpt lat="44.77645" lon="0.77628">
        <ele>127</ele>
        <time>2009-01-26T11:21:00Z</time>
      </trkpt>
      <trkpt lat="44.77645" lon="0.776">
        <ele>126</ele>
        <time>2009-01-26T11:21:03Z</time>
      </trkpt>
      <trkpt lat="44.77645" lon="0.77568">
        <ele>125</ele>
        <time>2009-01-26T11:21:07Z</time>
      </trkpt>
      <trkpt lat="44.77653" lon="0.77543">
        <ele>122</ele>
        <time>2009-01-26T11:21:17Z</time>
      </trkpt>
      <trkpt lat="44.77668" lon="0.7752">
        <ele>119</ele>
        <time>2009-01-26T11:21:23Z</time>
      </trkpt>
      <trkpt lat="44.77683" lon="0.775">
        <ele>118</ele>
        <time>2009-01-26T11:21:31Z</time>
      </trkpt>
      <trkpt lat="44.77695" lon="0.7748">
        <ele>118</ele>
        <time>2009-01-26T11:21:38Z</time>
      </trkpt>
      <trkpt lat="44.77708" lon="0.7746">
        <ele>119</ele>
        <time>2009-01-26T11:21:45Z</time>
      </trkpt>
      <trkpt lat="44.77723" lon="0.7744">
        <ele>118</ele>
        <time>2009-01-26T11:21:52Z</time>
      </trkpt>
      <trkpt lat="44.77738" lon="0.77423">
        <ele>116</ele>
        <time>2009-01-26T11:21:59Z</time>
      </trkpt>
      <trkpt lat="44.7775" lon="0.77403">
        <ele>117</ele>
        <time>2009-01-26T11:22:05Z</time>
      </trkpt>
      <trkpt lat="44.77763" lon="0.77383">
        <ele>117</ele>
        <time>2009-01-26T11:22:12Z</time>
      </trkpt>
      <trkpt lat="44.77775" lon="0.77363">
        <ele>113</ele>
        <time>2009-01-26T11:22:19Z</time>
      </trkpt>
      <trkpt lat="44.7779" lon="0.77343">
        <ele>109</ele>
        <time>2009-01-26T11:22:25Z</time>
      </trkpt>
      <trkpt lat="44.77803" lon="0.77323">
        <ele>105</ele>
        <time>2009-01-26T11:22:32Z</time>
      </trkpt>
      <trkpt lat="44.77813" lon="0.77298">
        <ele>99</ele>
        <time>2009-01-26T11:22:39Z</time>
      </trkpt>
      <trkpt lat="44.77818" lon="0.77273">
        <ele>93</ele>
        <time>2009-01-26T11:22:46Z</time>
      </trkpt>
      <trkpt lat="44.7782" lon="0.7724">
        <ele>90</ele>
        <time>2009-01-26T11:22:51Z</time>
      </trkpt>
      <trkpt lat="44.77823" lon="0.77213">
        <ele>89</ele>
        <time>2009-01-26T11:22:55Z</time>
      </trkpt>
      <trkpt lat="44.77815" lon="0.77188">
        <ele>83</ele>
        <time>2009-01-26T11:23:02Z</time>
      </trkpt>
      <trkpt lat="44.77803" lon="0.77168">
        <ele>84</ele>
        <time>2009-01-26T11:23:33Z</time>
      </trkpt>
      <trkpt lat="44.77793" lon="0.77145">
        <ele>90</ele>
        <time>2009-01-26T11:23:49Z</time>
      </trkpt>
      <trkpt lat="44.77778" lon="0.77128">
        <ele>89</ele>
        <time>2009-01-26T11:24:15Z</time>
      </trkpt>
      <trkpt lat="44.77763" lon="0.77113">
        <ele>91</ele>
        <time>2009-01-26T11:24:52Z</time>
      </trkpt>
      <trkpt lat="44.77745" lon="0.771">
        <ele>97</ele>
        <time>2009-01-26T11:25:37Z</time>
      </trkpt>
      <trkpt lat="44.77728" lon="0.77085">
        <ele>96</ele>
        <time>2009-01-26T11:25:59Z</time>
      </trkpt>
      <trkpt lat="44.7771" lon="0.77073">
        <ele>98</ele>
        <time>2009-01-26T11:26:20Z</time>
      </trkpt>
      <trkpt lat="44.77693" lon="0.7706">
        <ele>99</ele>
        <time>2009-01-26T11:26:40Z</time>
      </trkpt>
      <trkpt lat="44.77675" lon="0.77053">
        <ele>102</ele>
        <time>2009-01-26T11:27:04Z</time>
      </trkpt>
      <trkpt lat="44.77658" lon="0.77043">
        <ele>106</ele>
        <time>2009-01-26T11:27:23Z</time>
      </trkpt>
      <trkpt lat="44.7764" lon="0.77033">
        <ele>112</ele>
        <time>2009-01-26T11:27:44Z</time>
      </trkpt>
      <trkpt lat="44.77625" lon="0.77015">
        <ele>119</ele>
        <time>2009-01-26T11:28:09Z</time>
      </trkpt>
      <trkpt lat="44.77618" lon="0.7699">
        <ele>118</ele>
        <time>2009-01-26T11:28:39Z</time>
      </trkpt>
      <trkpt lat="44.77615" lon="0.76963">
        <ele>119</ele>
        <time>2009-01-26T11:29:03Z</time>
      </trkpt>
      <trkpt lat="44.77612" lon="0.76935">
        <ele>122</ele>
        <time>2009-06-18T16:43:36Z</time>
      </trkpt>
      <trkpt lat="44.776" lon="0.76936">
        <ele>123</ele>
        <time>2009-06-18T16:43:36Z</time>
      </trkpt>
      <trkpt lat="44.77579" lon="0.76937">
        <ele>123</ele>
        <time>2009-06-18T16:43:36Z</time>
      </trkpt>
      <trkpt lat="44.77554" lon="0.76938">
        <ele>124</ele>
        <time>2009-06-18T16:43:36Z</time>
      </trkpt>
      <trkpt lat="44.77528" lon="0.76932">
        <ele>124</ele>
        <time>2009-06-18T16:43:36Z</time>
      </trkpt>
      <trkpt lat="44.7749" lon="0.76911">
        <ele>124</ele>
        <time>2009-06-18T16:43:36Z</time>
      </trkpt>
      <trkpt lat="44.77477" lon="0.76902">
        <ele>124</ele>
        <time>2009-06-18T16:43:36Z</time>
      </trkpt>
      <trkpt lat="44.77457" lon="0.76876">
        <ele>124</ele>
        <time>2009-06-18T16:43:36Z</time>
      </trkpt>
      <trkpt lat="44.77415" lon="0.76836">
        <ele>124</ele>
        <time>2009-06-18T16:43:36Z</time>
      </trkpt>
      <trkpt lat="44.77391" lon="0.76813">
        <ele>124</ele>
        <time>2009-06-18T16:43:36Z</time>
      </trkpt>
      <trkpt lat="44.77366" lon="0.76785">
        <ele>123</ele>
        <time>2009-06-18T16:43:36Z</time>
      </trkpt>
      <trkpt lat="44.77344" lon="0.76742">
        <ele>123</ele>
        <time>2009-06-18T16:43:36Z</time>
      </trkpt>
      <trkpt lat="44.7732" lon="0.767">
        <ele>123</ele>
        <time>2009-01-26T11:29:32Z</time>
      </trkpt>
    </trkseg>
  </trk>
</gpx>